Terminal Aerodrome Forecast
Issued by NWS

Home | Current Version | Previous Version | Text Only | Print | Product List | Glossary Off
Versions: 1 2 3 4 5 6 7 8 9 10 11 12 13 14 15 16 17 18

000
FTUS43 KGRB 211100
TAFAUW
TAF
KAUW 211126Z 2112/2212 08003KT 1/4SM FG VV002
      TEMPO 2112/2114 1 1/2SM -SHRA BR SCT002 OVC030
     FM211400 21006KT 4SM BR VCSH BKN035 OVC070
      TEMPO 2116/2119 2SM TSRA BR BKN020CB
     FM211900 31012KT P6SM SCT020 BKN035
     FM212300 31013G21KT P6SM SCT025=

USA.gov is the U.S. government's official web portal to all federal, state and local government web resources and services.